createdAt,value
2022-09-09T00:01:38.070Z,100550.69
2022-09-09T00:04:06.285Z,100545.44
2022-09-09T00:06:36.306Z,100554.25
2022-09-09T00:09:08.067Z,100551.28
2022-09-09T00:11:42.305Z,100554.19
2022-09-09T00:14:29.439Z,100558.38
2022-09-09T00:16:56.578Z,100555.50
2022-09-09T00:19:22.857Z,100553.94
2022-09-09T00:21:55.079Z,100551.06
2022-09-09T00:24:33.066Z,100543.88
2022-09-09T00:27:02.079Z,100546.72
2022-09-09T00:29:36.768Z,100535.22
2022-09-09T00:32:10.101Z,100542.41
2022-09-09T00:34:36.522Z,100538.00
2022-09-09T00:37:02.905Z,100526.47
2022-09-09T00:39:33.684Z,100532.25
2022-09-09T00:42:10.084Z,100536.50
2022-09-09T00:44:37.771Z,100532.91
2022-09-09T00:47:06.849Z,100540.06
2022-09-09T00:49:36.899Z,100532.81
2022-09-09T00:52:22.184Z,100532.09
2022-09-09T00:54:50.255Z,100531.94
2022-09-09T00:57:32.219Z,100529.13
2022-09-09T01:00:18.756Z,100530.59
2022-09-09T01:03:08.485Z,100534.81
2022-09-09T01:05:53.690Z,100542.00
2022-09-09T01:08:34.481Z,100542.75
2022-09-09T01:11:00.923Z,100544.09
2022-09-09T01:13:32.726Z,100553.53
2022-09-09T01:16:03.593Z,100540.50
2022-09-09T01:18:35.630Z,100536.81
2022-09-09T01:21:05.428Z,100547.63
2022-09-09T01:23:35.310Z,100533.13
2022-09-09T01:26:19.194Z,100541.84
2022-09-09T01:28:46.560Z,100538.91
2022-09-09T01:31:19.615Z,100532.41
2022-09-09T01:33:47.560Z,100533.88
2022-09-09T01:36:34.551Z,100544.66
2022-09-09T01:39:01.013Z,100543.94
2022-09-09T01:41:28.183Z,100543.84
2022-09-09T01:44:02.629Z,100548.22
2022-09-09T01:46:30.329Z,100541.72
2022-09-09T01:48:57.592Z,100541.72
2022-09-09T01:51:23.994Z,100546.00
2022-09-09T01:53:50.742Z,100540.25
2022-09-09T01:56:37.911Z,100537.38
2022-09-09T01:59:24.356Z,100538.75
2022-09-09T02:02:14.550Z,100536.53
2022-09-09T02:04:47.538Z,100544.44
2022-09-09T02:07:29.299Z,100540.75
2022-09-09T02:10:01.955Z,100540.03
2022-09-09T02:12:28.363Z,100531.38
2022-09-09T02:14:57.450Z,100539.38
2022-09-09T02:17:27.169Z,100543.63
2022-09-09T02:20:09.740Z,100540.75
2022-09-09T02:23:03.528Z,100544.28
2022-09-09T02:25:31.258Z,100542.91
2022-09-09T02:28:14.933Z,100544.25
2022-09-09T02:30:41.701Z,100541.41
2022-09-09T02:33:08.773Z,100546.44
2022-09-09T02:35:42.979Z,100547.13
2022-09-09T02:38:10.653Z,100544.97
2022-09-09T02:40:38.650Z,100549.16
2022-09-09T02:43:05.308Z,100536.19
2022-09-09T02:45:35.535Z,100544.09
2022-09-09T02:48:17.497Z,100541.22
2022-09-09T02:50:48.902Z,100546.97
2022-09-09T02:53:19.244Z,100542.59
2022-09-09T02:55:56.550Z,100546.25
2022-09-09T02:58:24.051Z,100549.84
2022-09-09T03:01:04.109Z,100546.16
2022-09-09T03:03:31.302Z,100539.63
2022-09-09T03:05:58.681Z,100548.97
2022-09-09T03:08:28.608Z,100553.31
2022-09-09T03:10:56.881Z,100567.72
2022-09-09T03:13:26.183Z,100558.34
2022-09-09T03:15:52.779Z,100564.09
2022-09-09T03:18:20.853Z,100565.44
2022-09-09T03:20:50.612Z,100566.09
2022-09-09T03:23:17.695Z,100568.16
2022-09-09T03:25:49.441Z,100568.75
2022-09-09T03:28:19.355Z,100566.63
2022-09-09T03:30:46.280Z,100571.72
2022-09-09T03:33:13.601Z,100572.44
2022-09-09T03:35:40.651Z,100579.38
2022-09-09T03:38:07.443Z,100574.22
2022-09-09T03:40:35.026Z,100573.50
2022-09-09T03:43:01.714Z,100567.72
2022-09-09T03:45:28.463Z,100571.91
2022-09-09T03:47:55.379Z,100564.75
2022-09-09T03:50:21.786Z,100571.91
2022-09-09T03:52:49.409Z,100579.81
2022-09-09T03:55:20.642Z,100568.94
2022-09-09T03:57:47.090Z,100564.66
2022-09-09T04:00:13.657Z,100570.34
2022-09-09T04:02:44.405Z,100568.84
2022-09-09T04:05:15.532Z,100568.78
2022-09-09T04:07:43.543Z,100566.66
2022-09-09T04:10:09.886Z,100557.25
2022-09-09T04:12:38.429Z,100558.34
2022-09-09T04:15:04.954Z,100563.19
2022-09-09T04:17:32.046Z,100564.25
2022-09-09T04:19:58.483Z,100564.38
2022-09-09T04:22:24.855Z,100573.09
2022-09-09T04:24:51.385Z,100585.06
2022-09-09T04:27:19.430Z,100570.97
2022-09-09T04:29:45.974Z,100578.13
2022-09-09T04:32:13.261Z,100576.50
2022-09-09T04:34:42.217Z,100570.00
2022-09-09T04:37:09.408Z,100583.34
2022-09-09T04:39:36.286Z,100584.41
2022-09-09T04:42:04.168Z,100588.75
2022-09-09T04:44:31.263Z,100584.25
2022-09-09T04:46:57.592Z,100580.72
2022-09-09T04:49:24.218Z,100581.94
2022-09-09T04:51:50.683Z,100594.03
2022-09-09T04:54:17.914Z,100601.56
2022-09-09T04:56:45.576Z,100602.81
2022-09-09T04:59:12.303Z,100607.38
2022-09-09T05:01:48.815Z,100605.31
2022-09-09T05:04:17.066Z,100610.34
2022-09-09T05:06:43.501Z,100606.47
2022-09-09T05:09:10.719Z,100606.06
2022-09-09T05:11:37.708Z,100603.94
2022-09-09T05:14:31.061Z,100600.72
2022-09-09T05:16:59.418Z,100594.22
2022-09-09T05:19:25.787Z,100595.41
2022-09-09T05:21:53.519Z,100598.16
2022-09-09T05:24:25.830Z,100590.25
2022-09-09T05:26:54.857Z,100591.25
2022-09-09T05:29:21.259Z,100598.09
2022-09-09T05:31:48.131Z,100581.44
2022-09-09T05:34:17.466Z,100595.78
2022-09-09T05:36:43.827Z,100592.34
2022-09-09T05:39:10.346Z,100609.66
2022-09-09T05:41:36.909Z,100603.53
2022-09-09T05:44:04.495Z,100607.13
2022-09-09T05:46:35.329Z,100604.25
2022-09-09T05:49:02.585Z,100601.78
2022-09-09T05:51:31.431Z,100610.91
2022-09-09T05:54:00.231Z,100612.97
2022-09-09T05:56:29.584Z,100613.50
2022-09-09T05:58:57.142Z,100619.03
2022-09-09T06:01:27.965Z,100619.41
2022-09-09T06:03:54.399Z,100624.94
2022-09-09T06:06:23.648Z,100622.28
2022-09-09T06:08:51.859Z,100614.91
2022-09-09T06:11:19.032Z,100631.19
2022-09-09T06:13:45.699Z,100628.56
2022-09-09T06:16:12.869Z,100639.56
2022-09-09T06:18:40.271Z,100633.34
2022-09-09T06:21:07.545Z,100639.91
2022-09-09T06:23:35.568Z,100634.97
2022-09-09T06:26:03.836Z,100638.69
2022-09-09T06:28:30.315Z,100638.03
2022-09-09T06:31:00.607Z,100641.00
2022-09-09T06:33:28.795Z,100638.94
2022-09-09T06:35:55.619Z,100649.78
2022-09-09T06:38:23.382Z,100644.09
2022-09-09T06:40:56.636Z,100652.81
2022-09-09T06:43:24.102Z,100644.19
2022-09-09T06:45:57.575Z,100640.00
2022-09-09T06:48:24.223Z,100647.31
2022-09-09T06:50:50.815Z,100643.78
2022-09-09T06:53:19.977Z,100644.50
2022-09-09T06:55:46.899Z,100643.84
2022-09-09T06:58:13.496Z,100634.56
2022-09-09T07:00:40.333Z,100644.69
2022-09-09T07:03:07.108Z,100636.09
2022-09-09T07:05:33.442Z,100636.19
2022-09-09T07:07:59.804Z,100627.53
2022-09-09T07:10:26.857Z,100632.50
2022-09-09T07:12:54.070Z,100633.56
2022-09-09T07:15:23.828Z,100643.38
2022-09-09T07:17:50.247Z,100636.53
2022-09-09T07:20:17.051Z,100640.31
2022-09-09T07:22:43.691Z,100635.97
2022-09-09T07:25:10.897Z,100646.81
2022-09-09T07:27:37.578Z,100636.03
2022-09-09T07:30:05.327Z,100637.06
2022-09-09T07:32:33.663Z,100639.56
2022-09-09T07:35:00.859Z,100648.59
2022-09-09T07:37:27.983Z,100653.31
2022-09-09T07:39:54.477Z,100656.03
2022-09-09T07:42:20.944Z,100660.38
2022-09-09T07:44:47.654Z,100659.97
2022-09-09T07:47:15.976Z,100651.66
2022-09-09T07:49:47.187Z,100652.84
2022-09-09T07:52:18.213Z,100653.59
2022-09-09T07:54:48.775Z,100657.94
2022-09-09T07:57:16.460Z,100661.75
2022-09-09T07:59:42.962Z,100662.69
2022-09-09T08:02:10.485Z,100659.66
2022-09-09T08:04:36.999Z,100664.78
2022-09-09T08:07:04.331Z,100664.34
2022-09-09T08:09:35.501Z,100666.00
2022-09-09T08:12:09.883Z,100668.56
2022-09-09T08:14:36.588Z,100663.28
2022-09-09T08:17:02.919Z,100673.47
2022-09-09T08:19:33.989Z,100667.97
2022-09-09T08:22:02.711Z,100680.81
2022-09-09T08:24:30.182Z,100668.72
2022-09-09T08:26:57.674Z,100665.03
2022-09-09T08:29:24.295Z,100672.28
2022-09-09T08:31:53.753Z,100674.47
2022-09-09T08:34:21.028Z,100675.09
2022-09-09T08:36:49.185Z,100672.28
2022-09-09T08:39:16.753Z,100672.16
2022-09-09T08:42:07.532Z,100679.75
2022-09-09T08:44:37.993Z,100667.00
2022-09-09T08:47:12.469Z,100667.09
2022-09-09T08:49:47.871Z,100675.19
2022-09-09T08:52:16.907Z,100676.97
2022-09-09T08:54:52.301Z,100679.75
2022-09-09T08:57:21.582Z,100684.09
2022-09-09T08:59:48.051Z,100686.25
2022-09-09T09:02:18.364Z,100686.75
2022-09-09T09:05:00.137Z,100687.94
2022-09-09T09:07:33.360Z,100686.25
2022-09-09T09:10:03.575Z,100677.06
2022-09-09T09:12:36.487Z,100686.13
2022-09-09T09:15:02.991Z,100678.00
2022-09-09T09:17:32.282Z,100687.78
2022-09-09T09:19:58.911Z,100682.38
2022-09-09T09:22:38.216Z,100686.00
2022-09-09T09:25:12.651Z,100686.13
2022-09-09T09:27:52.545Z,100686.19
2022-09-09T09:30:29.482Z,100678.75
2022-09-09T09:33:06.809Z,100688.41
2022-09-09T09:35:36.277Z,100694.19
2022-09-09T09:41:10.441Z,100687.91
2022-09-09T09:44:27.118Z,100678.00
2022-09-09T09:50:18.697Z,100680.53
2022-09-09T09:52:53.976Z,100674.56
2022-09-09T09:55:20.746Z,100673.53
2022-09-09T09:57:47.058Z,100679.97
2022-09-09T10:00:18.719Z,100679.91
2022-09-09T10:02:53.458Z,100677.97
2022-09-09T10:05:27.302Z,100671.47
2022-09-09T10:08:17.550Z,100674.19
2022-09-09T10:10:49.394Z,100691.44
2022-09-09T10:13:18.710Z,100676.88
2022-09-09T10:15:52.468Z,100689.84
2022-09-09T10:18:26.414Z,100691.31
2022-09-09T10:21:00.938Z,100687.25
2022-09-09T10:23:50.586Z,100682.34
2022-09-09T10:26:25.280Z,100669.34
2022-09-09T10:29:00.668Z,100675.22
2022-09-09T10:31:39.402Z,100681.13
2022-09-09T10:34:21.565Z,100679.53
2022-09-09T10:36:50.043Z,100669.84
2022-09-09T10:39:19.595Z,100663.28
2022-09-09T10:41:49.414Z,100667.09
2022-09-09T10:44:45.283Z,100668.78
2022-09-09T10:47:11.545Z,100674.09
2022-09-09T10:49:52.870Z,100679.13
2022-09-09T10:52:22.291Z,100670.84
2022-09-09T10:54:56.138Z,100678.69
2022-09-09T10:57:32.930Z,100677.44
2022-09-09T11:00:00.933Z,100681.25
2022-09-09T11:02:30.813Z,100672.28
2022-09-09T11:05:04.727Z,100689.13
2022-09-09T11:07:34.271Z,100676.56
2022-09-09T11:10:04.251Z,100671.59
2022-09-09T11:12:30.735Z,100673.53
2022-09-09T11:14:58.778Z,100671.59
2022-09-09T11:17:31.228Z,100680.44
2022-09-09T11:19:58.455Z,100679.13
2022-09-09T11:22:30.827Z,100671.88
2022-09-09T11:25:11.159Z,100676.19
2022-09-09T11:27:56.339Z,100664.47
2022-09-09T11:30:44.577Z,100678.25
2022-09-09T11:33:24.742Z,100678.25
2022-09-09T11:36:07.976Z,100669.38
2022-09-09T11:38:41.524Z,100675.81
2022-09-09T11:41:08.226Z,100664.63
2022-09-09T11:43:38.471Z,100659.81
2022-09-09T11:46:04.916Z,100666.66
2022-09-09T11:48:34.549Z,100661.81
2022-09-09T11:51:06.025Z,100655.81
2022-09-09T11:53:32.665Z,100655.66
2022-09-09T11:56:02.780Z,100648.25
2022-09-09T11:58:29.736Z,100643.25
2022-09-09T12:00:56.079Z,100648.75
2022-09-09T12:03:34.651Z,100650.69
2022-09-09T12:06:01.511Z,100654.56
2022-09-09T12:08:28.502Z,100645.22
2022-09-09T12:10:56.697Z,100643.50
2022-09-09T12:13:24.272Z,100644.13
2022-09-09T12:15:51.115Z,100645.84
2022-09-09T12:18:23.593Z,100645.09
2022-09-09T12:20:58.341Z,100644.72
2022-09-09T12:23:36.920Z,100636.63
2022-09-09T12:26:19.307Z,100639.69
2022-09-09T12:29:01.313Z,100636.25
2022-09-09T12:31:31.535Z,100638.84
2022-09-09T12:34:03.334Z,100631.44
2022-09-09T12:36:30.149Z,100621.38
2022-09-09T12:38:57.847Z,100618.22
2022-09-09T12:41:25.254Z,100612.34
2022-09-09T12:43:51.789Z,100620.88
2022-09-09T12:46:22.718Z,100625.91
2022-09-09T12:48:49.069Z,100625.75
2022-09-09T12:51:18.538Z,100630.84
2022-09-09T12:53:46.633Z,100622.78
2022-09-09T12:56:22.611Z,100626.41
2022-09-09T12:58:49.280Z,100635.06
2022-09-09T13:01:25.826Z,100640.13
2022-09-09T13:03:52.455Z,100633.59
2022-09-09T13:06:20.586Z,100640.13
2022-09-09T13:08:46.936Z,100643.06
2022-09-09T13:11:17.821Z,100648.09
2022-09-09T13:13:44.239Z,100646.63
2022-09-09T13:16:24.040Z,100640.13
2022-09-09T13:18:50.475Z,100631.38
2022-09-09T13:21:16.803Z,100631.97
2022-09-09T13:24:09.261Z,100636.44
2022-09-09T13:26:35.581Z,100622.66
2022-09-09T13:29:18.926Z,100616.81
2022-09-09T13:31:45.294Z,100616.06
2022-09-09T13:34:15.139Z,100611.69
2022-09-09T13:36:42.375Z,100612.47
2022-09-09T13:39:16.187Z,100611.69
2022-09-09T13:41:45.694Z,100610.97
2022-09-09T13:44:19.007Z,100622.50
2022-09-09T13:46:45.374Z,100623.25
2022-09-09T13:49:12.107Z,100626.91
2022-09-09T13:51:43.158Z,100618.22
2022-09-09T13:54:10.135Z,100617.47
2022-09-09T13:56:36.849Z,100603.00
2022-09-09T13:59:03.479Z,100605.94
2022-09-09T14:01:30.188Z,100592.91
2022-09-09T14:03:56.948Z,100610.25
2022-09-09T14:06:23.315Z,100617.47
2022-09-09T14:08:52.346Z,100609.50
2022-09-09T14:11:18.889Z,100617.44
2022-09-09T14:13:45.222Z,100621.06
2022-09-09T14:16:11.612Z,100621.78
2022-09-09T14:18:39.165Z,100622.44
2022-09-09T14:21:05.617Z,100620.31
2022-09-09T14:23:33.252Z,100617.44
2022-09-09T14:25:59.622Z,100623.22
2022-09-09T14:28:54.484Z,100625.34
2022-09-09T14:31:14.455Z,100624.66
2022-09-09T14:33:40.893Z,100622.50
2022-09-09T14:36:07.299Z,100626.22
2022-09-09T14:38:34.648Z,100618.97
2022-09-09T14:41:04.070Z,100618.97
2022-09-09T14:43:31.041Z,100617.53
2022-09-09T14:45:57.421Z,100617.53
2022-09-09T14:48:23.858Z,100621.91
2022-09-09T14:50:50.307Z,100618.97
2022-09-09T14:53:17.817Z,100611.69
2022-09-09T14:55:44.480Z,100600.91
2022-09-09T14:58:11.021Z,100608.81
2022-09-09T15:00:37.347Z,100609.50
2022-09-09T15:03:03.751Z,100608.78
2022-09-09T15:05:30.168Z,100610.25
2022-09-09T15:07:57.473Z,100609.50
2022-09-09T15:10:23.815Z,100606.63
2022-09-09T15:12:50.150Z,100603.00
2022-09-09T15:15:16.538Z,100592.19
2022-09-09T15:17:42.877Z,100584.25
2022-09-09T15:20:09.399Z,100583.53
2022-09-09T15:22:37.585Z,100584.25
2022-09-09T15:25:04.028Z,100583.53
2022-09-09T15:27:31.261Z,100580.63
2022-09-09T15:29:59.150Z,100574.13
2022-09-09T15:32:25.517Z,100573.38
2022-09-09T15:34:53.081Z,100562.59
2022-09-09T15:37:19.423Z,100561.81
2022-09-09T15:39:45.849Z,100573.38
2022-09-09T15:42:12.203Z,100572.63
2022-09-09T15:44:43.482Z,100566.13
2022-09-09T15:47:11.313Z,100566.88
2022-09-09T15:49:37.638Z,100566.88
2022-09-09T15:52:04.334Z,100574.13
2022-09-09T15:54:34.179Z,100575.53
2022-09-09T15:57:00.943Z,100579.84
2022-09-09T15:59:28.769Z,100576.94
2022-09-09T16:01:55.899Z,100577.69
2022-09-09T16:04:25.399Z,100574.72
2022-09-09T16:06:52.051Z,100575.47
2022-09-09T16:09:18.388Z,100582.72
2022-09-09T16:11:44.718Z,100592.03
2022-09-09T16:14:12.022Z,100602.94
2022-09-09T16:16:38.431Z,100605.81
2022-09-09T16:19:06.331Z,100605.81
2022-09-09T16:21:33.496Z,100615.88
2022-09-09T16:24:00.462Z,100615.88
2022-09-09T16:26:26.842Z,100626.69
2022-09-09T16:28:55.102Z,100637.50
2022-09-09T16:31:22.450Z,100631.72
2022-09-09T16:33:48.812Z,100630.25
2022-09-09T16:36:15.914Z,100624.47
2022-09-09T16:38:42.514Z,100615.81
2022-09-09T16:41:09.527Z,100611.44
2022-09-09T16:43:36.918Z,100611.44
2022-09-09T16:46:03.863Z,100619.31
2022-09-09T16:48:34.106Z,100624.41
2022-09-09T16:51:04.897Z,100623.00
2022-09-09T16:53:31.282Z,100620.78
2022-09-09T16:55:57.627Z,100621.50
2022-09-09T16:58:23.942Z,100620.78
2022-09-09T17:00:52.087Z,100609.97
2022-09-09T17:03:18.420Z,100610.59
2022-09-09T17:05:45.605Z,100618.59
2022-09-09T17:08:11.930Z,100623.00
2022-09-09T17:10:42.602Z,100621.41
2022-09-09T17:13:09.257Z,100604.25
2022-09-09T17:15:41.095Z,100606.56
2022-09-09T17:18:07.617Z,100589.97
2022-09-09T17:20:45.955Z,100585.78
2022-09-09T17:23:16.188Z,100600.34
2022-09-09T17:25:42.530Z,100608.88
2022-09-09T17:28:08.857Z,100608.44
2022-09-09T17:30:35.215Z,100594.47
2022-09-09T17:33:01.594Z,100586.69
2022-09-09T17:35:28.267Z,100587.84
2022-09-09T17:37:55.563Z,100572.06
2022-09-09T17:40:21.983Z,100580.22
2022-09-09T17:42:48.325Z,100566.63
2022-09-09T17:45:15.274Z,100570.25
2022-09-09T17:47:43.800Z,100578.22
2022-09-09T17:50:13.569Z,100596.94
2022-09-09T17:52:41.490Z,100603.47
2022-09-09T17:55:09.666Z,100606.22
2022-09-09T17:57:36.326Z,100617.09
2022-09-09T18:00:02.751Z,100630.88
2022-09-09T18:02:39.048Z,100638.84
2022-09-09T18:05:05.735Z,100644.56
2022-09-09T18:07:32.052Z,100632.31
2022-09-09T18:09:58.474Z,100632.31
2022-09-09T18:12:24.835Z,100632.31
2022-09-09T18:14:52.421Z,100630.94
2022-09-09T18:17:18.786Z,100628.78
2022-09-09T18:19:45.159Z,100632.31
2022-09-09T18:22:11.523Z,100630.72
2022-09-09T18:24:38.183Z,100637.28
2022-09-09T18:27:04.518Z,100641.69
2022-09-09T18:29:31.110Z,100643.13
2022-09-09T18:31:57.460Z,100644.59
2022-09-09T18:34:25.527Z,100651.88
2022-09-09T18:36:54.897Z,100660.53
2022-09-09T18:39:21.777Z,100671.34
2022-09-09T18:41:48.670Z,100673.47
2022-09-09T18:44:20.658Z,100693.69
2022-09-09T18:46:47.330Z,100690.78
2022-09-09T18:49:14.347Z,100684.28
2022-09-09T18:51:41.608Z,100689.31
2022-09-09T18:54:09.381Z,100689.31
2022-09-09T18:56:35.976Z,100703.09
2022-09-09T18:59:03.061Z,100689.31
2022-09-09T19:01:29.450Z,100694.38
2022-09-09T19:03:56.922Z,100698.00
2022-09-09T19:06:24.082Z,100692.22
2022-09-09T19:08:54.742Z,100705.91
2022-09-09T19:11:22.398Z,100699.41
2022-09-09T19:13:55.787Z,100702.28
2022-09-09T19:16:23.116Z,100696.53
2022-09-09T19:18:50.100Z,100702.28
2022-09-09T19:21:23.146Z,100705.91
2022-09-09T19:24:00.009Z,100698.66
2022-09-09T19:26:30.328Z,100705.91
2022-09-09T19:28:57.593Z,100705.19
2022-09-09T19:31:24.117Z,100708.81
2022-09-09T19:33:51.219Z,100699.41
2022-09-09T19:36:18.200Z,100709.47
2022-09-09T19:38:47.666Z,100710.19
2022-09-09T19:41:14.913Z,100703.69
2022-09-09T19:43:41.296Z,100712.41
2022-09-09T19:46:08.909Z,100704.44
2022-09-09T19:48:37.374Z,100705.72
2022-09-09T19:51:04.783Z,100712.09
2022-09-09T19:53:32.193Z,100709.81
2022-09-09T19:55:58.600Z,100716.41
2022-09-09T19:58:24.922Z,100719.94
2022-09-09T20:00:51.694Z,100728.81
2022-09-09T20:03:19.989Z,100721.69
2022-09-09T20:05:48.935Z,100711.03
2022-09-09T20:08:15.288Z,100718.88
2022-09-09T20:10:49.729Z,100712.00
2022-09-09T20:13:16.140Z,100701.38
2022-09-09T20:15:42.517Z,100711.31
2022-09-09T20:18:08.899Z,100716.91
2022-09-09T20:20:39.991Z,100714.16
2022-09-09T20:23:08.311Z,100713.34
2022-09-09T20:25:37.987Z,100714.88
2022-09-09T20:28:04.316Z,100723.75
2022-09-09T20:30:31.303Z,100719.38
2022-09-09T20:32:57.616Z,100723.75
2022-09-09T20:35:24.265Z,100717.97
2022-09-09T20:37:50.755Z,100722.59
2022-09-09T20:40:17.103Z,100719.03
2022-09-09T20:42:43.429Z,100724.28
2022-09-09T20:45:16.073Z,100712.66
2022-09-09T20:47:42.397Z,100712.31
2022-09-09T20:50:09.626Z,100697.19
2022-09-09T20:52:35.986Z,100687.66
2022-09-09T20:55:02.398Z,100681.47
2022-09-09T20:57:28.720Z,100686.38
2022-09-09T20:59:55.033Z,100670.28
2022-09-09T21:02:21.756Z,100674.22
2022-09-09T21:04:48.908Z,100665.13
2022-09-09T21:07:15.234Z,100664.47
2022-09-09T21:09:41.568Z,100662.97
2022-09-09T21:12:08.565Z,100666.56
2022-09-09T21:14:34.926Z,100657.75
2022-09-09T21:17:03.124Z,100660.72
2022-09-09T21:19:29.445Z,100667.94
2022-09-09T21:21:57.038Z,100673.50
2022-09-09T21:24:23.382Z,100661.00
2022-09-09T21:26:50.007Z,100661.66
2022-09-09T21:29:16.326Z,100660.22
2022-09-09T21:31:43.483Z,100665.84
2022-09-09T21:34:09.854Z,100674.34
2022-09-09T21:36:36.209Z,100669.31
2022-09-09T21:39:02.547Z,100672.88
2022-09-09T21:41:28.919Z,100676.56
2022-09-09T21:43:55.315Z,100680.88
2022-09-09T21:46:23.099Z,100679.44
2022-09-09T21:48:50.534Z,100671.88
2022-09-09T21:51:16.867Z,100680.50
2022-09-09T21:53:43.390Z,100684.53
2022-09-09T21:56:10.355Z,100690.84
2022-09-09T21:58:36.787Z,100684.81
2022-09-09T22:01:07.899Z,100681.19
2022-09-09T22:03:36.977Z,100695.56
2022-09-09T22:06:04.805Z,100687.44
2022-09-09T22:08:31.159Z,100695.97
2022-09-09T22:10:57.661Z,100689.63
2022-09-09T22:13:24.003Z,100689.66
2022-09-09T22:15:50.976Z,100691.06
2022-09-09T22:18:19.024Z,100689.47
2022-09-09T22:20:45.358Z,100698.19
2022-09-09T22:23:11.679Z,100689.31
2022-09-09T22:25:38.007Z,100696.56
2022-09-09T22:28:04.556Z,100687.91
2022-09-09T22:30:30.873Z,100693.75
2022-09-09T22:32:57.439Z,100701.00
2022-09-09T22:35:23.750Z,100700.94
2022-09-09T22:37:50.073Z,100696.56
2022-09-09T22:40:16.385Z,100705.91
2022-09-09T22:42:42.698Z,100708.88
2022-09-09T22:45:09.384Z,100713.16
2022-09-09T22:47:35.777Z,100709.47
2022-09-09T22:50:02.106Z,100712.41
2022-09-09T22:52:28.814Z,100708.13
2022-09-09T22:54:55.131Z,100700.13
2022-09-09T22:57:21.458Z,100702.22
2022-09-09T22:59:47.773Z,100700.00
2022-09-09T23:02:14.514Z,100697.19
2022-09-09T23:04:40.854Z,100700.72
2022-09-09T23:07:08.299Z,100692.06
2022-09-09T23:09:34.655Z,100692.75
2022-09-09T23:12:01.584Z,100693.34
2022-09-09T23:14:27.923Z,100681.88
2022-09-09T23:16:54.922Z,100677.50
2022-09-09T23:19:21.847Z,100680.34
2022-09-09T23:21:48.189Z,100674.59
2022-09-09T23:24:15.160Z,100678.25
2022-09-09T23:26:41.802Z,100687.56
2022-09-09T23:29:09.715Z,100681.06
2022-09-09T23:31:39.873Z,100676.75
2022-09-09T23:34:06.186Z,100681.00
2022-09-09T23:36:32.510Z,100677.44
2022-09-09T23:38:59.073Z,100673.81
2022-09-09T23:41:25.492Z,100688.16
2022-09-09T23:43:52.293Z,100697.50
2022-09-09T23:46:20.193Z,100691.06
2022-09-09T23:48:50.608Z,100691.72
2022-09-09T23:51:19.677Z,100683.75
2022-09-09T23:53:51.183Z,100684.47
2022-09-09T23:56:20.486Z,100675.81
2022-09-09T23:58:49.566Z,100670.03
